createdAt,value
2023-07-23T00:01:21.814Z,22.40
2023-07-23T00:03:52.176Z,22.50
2023-07-23T00:06:21.922Z,22.70
2023-07-23T00:08:51.500Z,22.80
2023-07-23T00:11:21.949Z,22.80
2023-07-23T00:13:51.477Z,22.80
2023-07-23T00:16:21.036Z,22.70
2023-07-23T00:18:50.761Z,22.70
2023-07-23T00:21:20.293Z,22.70
2023-07-23T00:23:49.797Z,22.60
2023-07-23T00:26:20.107Z,22.70
2023-07-23T00:28:49.643Z,22.70
2023-07-23T00:31:19.174Z,22.70
2023-07-23T00:33:50.683Z,22.40
2023-07-23T00:36:20.873Z,22.40
2023-07-23T00:38:51.381Z,22.60
2023-07-23T00:41:20.906Z,22.60
2023-07-23T00:43:50.438Z,22.60
2023-07-23T00:46:20.096Z,22.50
2023-07-23T00:48:50.519Z,22.50
2023-07-23T00:51:20.248Z,22.50
2023-07-23T00:53:51.503Z,22.50
2023-07-23T00:56:21.199Z,22.50
2023-07-23T00:58:50.853Z,22.50
2023-07-23T01:01:20.466Z,22.40
2023-07-23T01:03:51.815Z,21.90
2023-07-23T01:06:25.765Z,21.80
2023-07-23T01:08:57.595Z,22.00
2023-07-23T01:11:29.100Z,22.20
2023-07-23T01:14:01.533Z,22.20
2023-07-23T01:16:33.711Z,22.20
2023-07-23T01:19:04.989Z,22.20
2023-07-23T01:21:35.005Z,22.20
2023-07-23T01:24:03.725Z,22.20
2023-07-23T01:26:32.383Z,22.20
2023-07-23T01:29:01.346Z,22.10
2023-07-23T01:31:30.280Z,22.10
2023-07-23T01:34:03.174Z,22.10
2023-07-23T01:36:32.571Z,21.80
2023-07-23T01:39:02.191Z,21.80
2023-07-23T01:41:32.044Z,21.80
2023-07-23T01:44:03.830Z,21.90
2023-07-23T01:46:33.902Z,21.90
2023-07-23T01:49:06.115Z,21.90
2023-07-23T01:51:34.860Z,21.90
2023-07-23T01:54:04.454Z,21.90
2023-07-23T01:56:34.117Z,21.80
2023-07-23T01:59:05.459Z,21.80
2023-07-23T02:01:35.044Z,21.80
2023-07-23T02:04:04.725Z,21.70
2023-07-23T02:06:36.677Z,21.60
2023-07-23T02:09:06.314Z,21.60
2023-07-23T02:11:36.411Z,21.60
2023-07-23T02:14:06.108Z,21.50
2023-07-23T02:16:35.678Z,21.20
2023-07-23T02:19:05.431Z,21.20
2023-07-23T02:21:35.147Z,21.20
2023-07-23T02:25:43.629Z,21.20
2023-07-23T02:28:13.314Z,21.30
2023-07-23T02:30:42.192Z,21.30
2023-07-23T02:33:11.121Z,21.30
2023-07-23T02:35:40.665Z,21.20
2023-07-23T02:38:09.571Z,21.10
2023-07-23T02:40:39.238Z,21.10
2023-07-23T02:43:09.689Z,21.00
2023-07-23T02:45:38.361Z,21.00
2023-07-23T02:48:10.104Z,21.20
2023-07-23T02:50:40.921Z,21.10
2023-07-23T02:53:10.467Z,21.10
2023-07-23T02:55:39.984Z,21.00
2023-07-23T02:58:09.506Z,21.10
2023-07-23T03:00:40.686Z,21.10
2023-07-23T03:03:10.311Z,21.10
2023-07-23T03:05:40.282Z,21.00
2023-07-23T03:08:10.066Z,21.00
2023-07-23T03:10:42.682Z,21.00
2023-07-23T03:13:13.524Z,21.10
2023-07-23T03:15:43.557Z,21.00
2023-07-23T03:18:21.850Z,20.90
2023-07-23T03:20:51.989Z,20.80
2023-07-23T03:23:21.531Z,20.90
2023-07-23T03:25:50.399Z,20.80
2023-07-23T03:28:19.942Z,20.80
2023-07-23T03:30:50.098Z,20.60
2023-07-23T03:33:19.621Z,20.60
2023-07-23T03:35:48.712Z,20.70
2023-07-23T03:38:19.343Z,20.70
2023-07-23T03:40:48.655Z,20.50
2023-07-23T03:43:17.301Z,19.60
2023-07-23T03:45:47.002Z,20.10
2023-07-23T03:48:16.900Z,20.30
2023-07-23T03:50:46.408Z,20.30
2023-07-23T03:53:16.080Z,19.80
2023-07-23T03:55:45.668Z,19.20
2023-07-23T03:58:15.185Z,19.00
2023-07-23T04:00:45.286Z,19.10
2023-07-23T04:03:14.806Z,19.10
2023-07-23T04:05:44.394Z,19.50
2023-07-23T04:08:14.124Z,19.90
2023-07-23T04:10:43.742Z,20.10
2023-07-23T04:13:15.022Z,20.20
2023-07-23T04:15:45.348Z,20.30
2023-07-23T04:18:16.527Z,20.20
2023-07-23T04:20:46.350Z,20.20
2023-07-23T04:23:16.086Z,20.30
2023-07-23T04:25:45.669Z,20.20
2023-07-23T04:28:15.207Z,20.20
2023-07-23T04:30:46.458Z,20.20
2023-07-23T04:33:16.038Z,20.10
2023-07-23T04:35:45.619Z,20.10
2023-07-23T04:38:15.444Z,20.00
2023-07-23T04:40:45.631Z,19.90
2023-07-23T04:43:16.402Z,20.00
2023-07-23T04:45:45.938Z,20.00
2023-07-23T04:48:15.667Z,20.00
2023-07-23T04:50:45.339Z,20.00
2023-07-23T04:53:16.407Z,19.90
2023-07-23T04:55:46.034Z,19.90
2023-07-23T04:58:15.569Z,19.80
2023-07-23T05:00:44.636Z,19.90
2023-07-23T05:03:14.347Z,20.00
2023-07-23T05:05:56.110Z,19.90
2023-07-23T05:08:25.818Z,19.90
2023-07-23T05:11:01.346Z,20.00
2023-07-23T05:13:32.124Z,19.80
2023-07-23T05:16:06.796Z,19.70
2023-07-23T05:18:36.554Z,19.80
2023-07-23T05:21:07.693Z,19.80
2023-07-23T05:23:38.276Z,19.90
2023-07-23T05:26:07.798Z,19.80
2023-07-23T05:28:37.321Z,19.80
2023-07-23T05:31:06.926Z,19.70
2023-07-23T05:33:36.570Z,19.80
2023-07-23T05:36:07.591Z,19.90
2023-07-23T05:38:37.107Z,20.10
2023-07-23T05:41:07.481Z,19.90
2023-07-23T05:43:37.459Z,19.90
2023-07-23T05:46:07.483Z,20.10
2023-07-23T05:48:37.491Z,20.00
2023-07-23T05:51:07.020Z,20.20
2023-07-23T05:53:36.537Z,20.20
2023-07-23T05:56:06.597Z,20.20
2023-07-23T05:58:36.254Z,20.30
2023-07-23T06:01:06.019Z,20.20
2023-07-23T06:03:48.082Z,20.20
2023-07-23T06:06:06.784Z,20.30
2023-07-23T06:08:36.311Z,20.40
2023-07-23T06:11:06.061Z,20.50
2023-07-23T06:13:35.774Z,20.60
2023-07-23T06:16:05.661Z,20.30
2023-07-23T06:18:38.425Z,19.80
2023-07-23T06:21:08.002Z,20.10
2023-07-23T06:23:37.776Z,20.70
2023-07-23T06:26:10.588Z,20.90
2023-07-23T06:28:39.293Z,20.60
2023-07-23T06:31:08.115Z,21.10
2023-07-23T06:33:38.220Z,21.20
2023-07-23T06:36:07.890Z,21.30
2023-07-23T06:38:37.554Z,21.40
2023-07-23T06:41:08.085Z,21.60
2023-07-23T06:43:37.802Z,22.00
2023-07-23T06:46:07.423Z,22.20
2023-07-23T06:48:37.273Z,22.20
2023-07-23T06:51:06.809Z,22.70
2023-07-23T06:53:36.426Z,23.10
2023-07-23T06:56:10.892Z,22.60
2023-07-23T06:58:41.478Z,22.20
2023-07-23T07:01:11.247Z,23.00
2023-07-23T07:03:40.982Z,23.20
2023-07-23T07:06:10.657Z,22.70
2023-07-23T07:08:41.060Z,23.00
2023-07-23T07:11:11.574Z,23.60
2023-07-23T07:13:41.909Z,23.90
2023-07-23T07:16:17.850Z,24.30
2023-07-23T07:18:47.654Z,24.00
2023-07-23T07:21:17.164Z,24.40
2023-07-23T07:23:45.902Z,24.70
2023-07-23T07:26:15.308Z,24.20
2023-07-23T07:28:45.701Z,25.00
2023-07-23T07:31:17.847Z,25.40
2023-07-23T07:33:47.507Z,25.90
2023-07-23T07:36:18.946Z,26.00
2023-07-23T07:38:47.706Z,26.10
2023-07-23T07:41:16.858Z,26.50
2023-07-23T07:43:45.736Z,26.60
2023-07-23T07:46:15.426Z,26.40
2023-07-23T07:48:45.045Z,26.40
2023-07-23T07:51:14.697Z,26.50
2023-07-23T07:53:44.224Z,26.30
2023-07-23T07:56:19.367Z,26.40
2023-07-23T07:58:49.636Z,26.30
2023-07-23T08:01:19.488Z,26.40
2023-07-23T08:03:49.274Z,25.50
2023-07-23T08:06:20.794Z,26.10
2023-07-23T08:08:52.561Z,26.90
2023-07-23T08:11:25.019Z,26.10
2023-07-23T08:13:55.466Z,26.40
2023-07-23T08:16:25.144Z,27.10
2023-07-23T08:18:55.109Z,27.90
2023-07-23T08:21:27.682Z,27.80
2023-07-23T08:23:58.853Z,27.90
2023-07-23T08:26:29.550Z,27.70
2023-07-23T08:29:02.789Z,27.20
2023-07-23T08:31:32.864Z,28.10
2023-07-23T08:34:05.210Z,27.50
2023-07-23T08:36:34.974Z,27.40
2023-07-23T08:39:06.888Z,27.60
2023-07-23T08:41:45.005Z,27.30
2023-07-23T08:44:34.623Z,26.70
2023-07-23T08:47:16.031Z,27.90
2023-07-23T08:49:46.456Z,28.70
2023-07-23T08:52:16.422Z,27.70
2023-07-23T08:54:46.712Z,29.10
2023-07-23T08:57:17.116Z,29.50
2023-07-23T08:59:48.020Z,27.70
2023-07-23T09:02:17.639Z,27.80
2023-07-23T09:04:47.286Z,27.60
2023-07-23T09:07:18.865Z,27.90
2023-07-23T09:09:52.324Z,28.90
2023-07-23T09:12:21.954Z,29.80
2023-07-23T09:14:53.170Z,28.80
2023-07-23T09:17:24.626Z,27.70
2023-07-23T09:19:55.927Z,28.30
2023-07-23T09:22:25.452Z,29.10
2023-07-23T09:24:58.108Z,30.00
2023-07-23T09:27:38.695Z,29.00
2023-07-23T09:30:11.623Z,29.60
2023-07-23T09:32:41.358Z,29.90
2023-07-23T09:35:13.087Z,28.80
2023-07-23T09:37:44.144Z,29.70
2023-07-23T09:40:14.805Z,29.70
2023-07-23T09:42:45.942Z,31.00
2023-07-23T09:45:16.680Z,29.20
2023-07-23T09:47:50.665Z,28.40
2023-07-23T09:50:19.957Z,29.40
2023-07-23T09:52:55.268Z,28.90
2023-07-23T09:55:26.152Z,30.10
2023-07-23T09:57:59.053Z,30.00
2023-07-23T10:00:31.476Z,29.10
2023-07-23T10:03:05.956Z,29.20
2023-07-23T10:05:37.479Z,29.20
2023-07-23T10:08:08.597Z,29.60
2023-07-23T10:10:38.612Z,29.10
2023-07-23T10:13:08.220Z,28.70
2023-07-23T10:15:40.506Z,28.40
2023-07-23T10:18:10.659Z,29.40
2023-07-23T10:20:41.732Z,29.20
2023-07-23T10:23:11.656Z,29.10
2023-07-23T10:25:42.044Z,29.50
2023-07-23T10:28:14.205Z,30.10
2023-07-23T10:30:43.907Z,30.20
2023-07-23T10:33:16.771Z,29.80
2023-07-23T10:36:00.279Z,29.20
2023-07-23T10:38:36.143Z,29.70
2023-07-23T10:41:08.505Z,29.20
2023-07-23T10:43:43.366Z,29.30
2023-07-23T10:46:21.353Z,29.90
2023-07-23T10:48:53.062Z,29.00
2023-07-23T10:51:25.468Z,29.50
2023-07-23T10:54:06.475Z,30.20
2023-07-23T10:56:40.567Z,30.10
2023-07-23T10:59:18.526Z,30.30
2023-07-23T11:01:50.163Z,30.50
2023-07-23T11:04:23.027Z,30.40
2023-07-23T11:07:06.210Z,30.60
2023-07-23T11:09:42.077Z,31.10
2023-07-23T11:12:14.883Z,31.30
2023-07-23T11:14:44.418Z,31.80
2023-07-23T11:17:15.460Z,31.70
2023-07-23T11:19:47.725Z,32.80
2023-07-23T11:22:17.362Z,32.40
2023-07-23T11:24:46.935Z,32.30
2023-07-23T11:27:18.513Z,32.90
2023-07-23T11:29:48.842Z,32.40
2023-07-23T11:32:18.833Z,32.60
2023-07-23T11:34:48.727Z,31.90
2023-07-23T11:37:18.419Z,32.80
2023-07-23T11:39:52.903Z,32.90
2023-07-23T11:42:22.657Z,33.30
2023-07-23T11:45:04.056Z,32.50
2023-07-23T11:47:35.562Z,32.90
2023-07-23T11:50:05.587Z,32.80
2023-07-23T11:52:35.867Z,32.60
2023-07-23T11:55:05.937Z,33.30
2023-07-23T11:57:35.538Z,33.20
2023-07-23T12:00:07.273Z,33.90
2023-07-23T12:02:40.219Z,34.30
2023-07-23T12:05:10.913Z,33.50
2023-07-23T12:07:40.479Z,33.30
2023-07-23T12:10:12.002Z,32.90
2023-07-23T12:12:41.642Z,33.30
2023-07-23T12:15:13.132Z,33.90
2023-07-23T12:17:43.960Z,33.20
2023-07-23T12:20:18.587Z,32.90
2023-07-23T12:22:56.340Z,33.10
2023-07-23T12:25:27.061Z,33.30
2023-07-23T12:27:56.892Z,33.50
2023-07-23T12:30:26.420Z,33.80
2023-07-23T12:32:56.051Z,33.40
2023-07-23T12:35:25.709Z,33.70
2023-07-23T12:37:55.240Z,33.00
2023-07-23T12:40:25.351Z,33.60
2023-07-23T12:42:54.849Z,33.60
2023-07-23T12:45:24.377Z,33.10
2023-07-23T12:47:54.076Z,33.70
2023-07-23T12:50:24.667Z,33.70
2023-07-23T12:52:54.391Z,34.70
2023-07-23T12:55:24.006Z,35.30
2023-07-23T12:57:53.976Z,33.90
2023-07-23T13:00:23.649Z,34.50
2023-07-23T13:02:53.618Z,35.10
2023-07-23T13:05:23.397Z,34.80
2023-07-23T13:07:53.235Z,34.30
2023-07-23T13:10:22.826Z,34.10
2023-07-23T13:12:52.326Z,34.10
2023-07-23T13:15:22.659Z,34.30
2023-07-23T13:17:52.267Z,34.80
2023-07-23T13:20:23.762Z,34.70
2023-07-23T13:22:53.289Z,34.20
2023-07-23T13:25:23.581Z,34.70
2023-07-23T13:27:53.175Z,34.80
2023-07-23T13:30:22.965Z,34.00
2023-07-23T13:32:52.697Z,34.40
2023-07-23T13:35:22.396Z,35.00
2023-07-23T13:37:52.211Z,35.30
2023-07-23T13:40:21.804Z,34.70
2023-07-23T13:42:51.341Z,34.60
2023-07-23T13:45:21.153Z,35.10
2023-07-23T13:47:52.441Z,35.90
2023-07-23T13:50:25.324Z,36.00
2023-07-23T13:52:54.179Z,36.30
2023-07-23T13:55:24.632Z,36.40
2023-07-23T13:57:54.165Z,35.60
2023-07-23T14:00:23.831Z,35.70
2023-07-23T14:02:53.493Z,35.10
2023-07-23T14:05:25.188Z,34.00
2023-07-23T14:07:55.138Z,34.20
2023-07-23T14:10:24.805Z,35.00
2023-07-23T14:12:54.448Z,35.00
2023-07-23T14:15:24.763Z,35.10
2023-07-23T14:17:54.975Z,35.20
2023-07-23T14:20:25.965Z,35.00
2023-07-23T14:22:55.495Z,35.40
2023-07-23T14:25:25.375Z,34.30
2023-07-23T14:27:55.623Z,34.30
2023-07-23T14:30:25.282Z,34.80
2023-07-23T14:32:55.001Z,35.20
2023-07-23T14:35:26.158Z,34.80
2023-07-23T14:37:55.693Z,35.00
2023-07-23T14:40:25.363Z,34.70
2023-07-23T14:42:54.932Z,35.00
2023-07-23T14:45:24.622Z,34.60
2023-07-23T14:47:54.184Z,34.60
2023-07-23T14:50:23.890Z,34.80
2023-07-23T14:52:53.495Z,34.70
2023-07-23T14:55:23.774Z,34.50
2023-07-23T14:57:54.342Z,34.50
2023-07-23T15:00:23.939Z,34.00
2023-07-23T15:02:54.402Z,34.20
2023-07-23T15:05:23.961Z,34.20
2023-07-23T15:07:53.522Z,34.30
2023-07-23T15:10:23.825Z,34.80
2023-07-23T15:12:53.697Z,34.80
2023-07-23T15:15:24.173Z,35.00
2023-07-23T15:17:53.977Z,34.70
2023-07-23T15:20:24.716Z,35.00
2023-07-23T15:22:56.729Z,34.50
2023-07-23T15:25:28.658Z,34.80
2023-07-23T15:28:01.254Z,35.10
2023-07-23T15:30:30.941Z,35.20
2023-07-23T15:33:03.234Z,34.90
2023-07-23T15:35:34.383Z,34.30
2023-07-23T15:38:03.918Z,34.60
2023-07-23T15:40:35.583Z,34.30
2023-07-23T15:43:05.249Z,34.40
2023-07-23T15:45:34.829Z,34.30
2023-07-23T15:48:04.678Z,34.20
2023-07-23T15:50:34.397Z,34.30
2023-07-23T15:53:06.953Z,34.60
2023-07-23T15:55:36.457Z,34.50
2023-07-23T15:58:07.407Z,35.00
2023-07-23T16:00:37.007Z,35.00
2023-07-23T16:03:07.013Z,34.50
2023-07-23T16:05:37.031Z,34.40
2023-07-23T16:08:06.898Z,34.00
2023-07-23T16:10:36.445Z,34.40
2023-07-23T16:13:06.112Z,34.20
2023-07-23T16:15:35.756Z,34.70
2023-07-23T16:18:05.506Z,34.80
2023-07-23T16:20:35.493Z,34.80
2023-07-23T16:23:05.516Z,34.60
2023-07-23T16:25:36.076Z,34.60
2023-07-23T16:28:08.824Z,34.50
2023-07-23T16:30:38.635Z,34.50
2023-07-23T16:33:08.514Z,34.80
2023-07-23T16:35:40.124Z,34.30
2023-07-23T16:38:15.701Z,34.20
2023-07-23T16:40:50.115Z,34.20
2023-07-23T16:43:21.085Z,34.30
2023-07-23T16:45:51.343Z,34.30
2023-07-23T16:48:21.921Z,34.40
2023-07-23T16:50:52.059Z,34.40
2023-07-23T16:53:25.871Z,34.50
2023-07-23T16:55:55.697Z,34.40
2023-07-23T16:58:26.932Z,34.20
2023-07-23T17:00:56.698Z,33.60
2023-07-23T17:03:27.113Z,33.60
2023-07-23T17:05:56.775Z,33.40
2023-07-23T17:08:26.410Z,33.30
2023-07-23T17:10:58.475Z,33.30
2023-07-23T17:13:28.079Z,33.20
2023-07-23T17:15:57.620Z,33.30
2023-07-23T17:18:28.491Z,33.30
2023-07-23T17:20:58.024Z,33.30
2023-07-23T17:23:28.023Z,33.30
2023-07-23T17:25:57.962Z,33.10
2023-07-23T17:28:27.808Z,33.10
2023-07-23T17:31:04.631Z,32.90
2023-07-23T17:33:34.427Z,32.60
2023-07-23T17:36:04.830Z,32.70
2023-07-23T17:38:34.481Z,32.70
2023-07-23T17:41:04.656Z,32.60
2023-07-23T17:43:34.225Z,32.60
2023-07-23T17:46:05.188Z,32.40
2023-07-23T17:48:35.757Z,32.20
2023-07-23T17:51:05.845Z,32.30
2023-07-23T17:53:37.033Z,32.30
2023-07-23T17:56:07.366Z,32.30
2023-07-23T17:58:36.906Z,32.10
2023-07-23T18:01:19.581Z,32.10
2023-07-23T18:03:38.774Z,32.00
2023-07-23T18:06:09.707Z,31.90
2023-07-23T18:08:39.311Z,31.80
2023-07-23T18:11:09.308Z,31.70
2023-07-23T18:13:40.559Z,31.60
2023-07-23T18:16:10.234Z,31.70
2023-07-23T18:18:40.375Z,31.50
2023-07-23T18:21:10.248Z,31.50
2023-07-23T18:23:40.482Z,31.40
2023-07-23T18:26:10.125Z,31.30
2023-07-23T18:28:40.848Z,31.20
2023-07-23T18:31:18.167Z,31.20
2023-07-23T18:33:42.159Z,31.10
2023-07-23T18:36:11.675Z,31.10
2023-07-23T18:38:41.331Z,31.10
2023-07-23T18:41:11.255Z,31.00
2023-07-23T18:43:42.956Z,31.00
2023-07-23T18:46:12.637Z,31.00
2023-07-23T18:48:42.210Z,30.90
2023-07-23T18:51:11.729Z,30.80
2023-07-23T18:53:41.652Z,30.80
2023-07-23T18:56:12.904Z,30.70
2023-07-23T18:58:43.517Z,30.60
2023-07-23T19:01:13.626Z,30.60
2023-07-23T19:03:44.500Z,30.60
2023-07-23T19:06:14.402Z,30.60
2023-07-23T19:08:46.227Z,30.50
2023-07-23T19:11:14.981Z,30.50
2023-07-23T19:13:44.521Z,30.40
2023-07-23T19:16:15.656Z,30.40
2023-07-23T19:18:45.470Z,30.40
2023-07-23T19:21:16.992Z,30.40
2023-07-23T19:23:46.574Z,30.30
2023-07-23T19:26:16.890Z,30.20
2023-07-23T19:28:47.846Z,30.00
2023-07-23T19:31:17.449Z,29.90
2023-07-23T19:33:47.038Z,29.80
2023-07-23T19:36:17.652Z,29.60
2023-07-23T19:38:48.463Z,29.60
2023-07-23T19:41:20.116Z,29.60
2023-07-23T19:43:49.670Z,29.60
2023-07-23T19:46:19.577Z,29.50
2023-07-23T19:48:49.168Z,29.40
2023-07-23T19:51:18.696Z,29.30
2023-07-23T19:53:48.577Z,29.20
2023-07-23T19:56:18.271Z,29.20
2023-07-23T19:58:47.818Z,29.00
2023-07-23T20:01:17.472Z,28.90
2023-07-23T20:03:47.041Z,28.80
2023-07-23T20:06:16.642Z,28.60
2023-07-23T20:08:46.464Z,28.40
2023-07-23T20:11:17.732Z,28.20
2023-07-23T20:13:47.310Z,28.20
2023-07-23T20:16:20.266Z,28.10
2023-07-23T20:18:48.815Z,28.10
2023-07-23T20:21:25.650Z,28.00
2023-07-23T20:23:50.500Z,28.00
2023-07-23T20:26:20.039Z,28.00
2023-07-23T20:28:49.898Z,28.10
2023-07-23T20:31:21.586Z,27.80
2023-07-23T20:33:51.511Z,27.80
2023-07-23T20:36:21.862Z,27.60
2023-07-23T20:38:51.793Z,27.40
2023-07-23T20:41:21.558Z,27.30
2023-07-23T20:43:51.433Z,27.10
2023-07-23T20:46:21.519Z,27.20
2023-07-23T20:48:51.117Z,27.10
2023-07-23T20:51:21.003Z,27.20
2023-07-23T20:53:50.541Z,27.20
2023-07-23T20:56:20.912Z,27.10
2023-07-23T20:58:50.451Z,27.10
2023-07-23T21:01:20.215Z,27.10
2023-07-23T21:03:49.793Z,27.00
2023-07-23T21:06:19.863Z,27.00
2023-07-23T21:08:49.580Z,27.00
2023-07-23T21:11:19.106Z,26.90
2023-07-23T21:13:48.807Z,27.00
2023-07-23T21:16:20.145Z,26.80
2023-07-23T21:18:50.490Z,26.80
2023-07-23T21:21:20.485Z,26.60
2023-07-23T21:23:51.257Z,26.30
2023-07-23T21:26:20.829Z,26.10
2023-07-23T21:28:52.296Z,26.10
2023-07-23T21:31:21.660Z,26.20
2023-07-23T21:33:51.182Z,26.10
2023-07-23T21:36:20.717Z,26.20
2023-07-23T21:38:50.312Z,26.20
2023-07-23T21:41:19.825Z,26.10
2023-07-23T21:43:49.360Z,26.40
2023-07-23T21:46:20.132Z,26.60
2023-07-23T21:48:49.705Z,26.60
2023-07-23T21:51:19.211Z,26.50
2023-07-23T21:53:49.469Z,26.40
2023-07-23T21:56:19.374Z,25.80
2023-07-23T21:58:48.946Z,25.50
2023-07-23T22:01:18.477Z,25.30
2023-07-23T22:03:48.176Z,25.30
2023-07-23T22:06:21.058Z,25.30
2023-07-23T22:08:49.948Z,25.40
2023-07-23T22:11:20.098Z,25.40
2023-07-23T22:13:49.604Z,25.20
2023-07-23T22:16:23.749Z,25.10
2023-07-23T22:18:54.042Z,24.70
2023-07-23T22:21:24.456Z,24.20
2023-07-23T22:23:53.998Z,24.00
2023-07-23T22:26:23.617Z,23.90
2023-07-23T22:28:53.308Z,23.90
2023-07-23T22:31:23.000Z,23.90
2023-07-23T22:33:54.225Z,23.80
2023-07-23T22:36:24.226Z,23.70
2023-07-23T22:38:53.821Z,23.90
2023-07-23T22:41:23.554Z,24.30
2023-07-23T22:43:57.065Z,24.60
2023-07-23T22:46:26.415Z,24.40
2023-07-23T22:48:56.250Z,24.50
2023-07-23T22:51:25.874Z,24.90
2023-07-23T22:53:56.411Z,25.00
2023-07-23T22:56:26.048Z,25.00
2023-07-23T22:58:55.592Z,25.20
2023-07-23T23:01:25.573Z,25.10
2023-07-23T23:03:55.340Z,25.20
2023-07-23T23:06:26.910Z,25.20
2023-07-23T23:08:58.509Z,24.90
2023-07-23T23:11:29.936Z,24.30
2023-07-23T23:13:59.620Z,24.30
2023-07-23T23:16:29.523Z,24.30
2023-07-23T23:18:59.944Z,24.70
2023-07-23T23:21:29.503Z,24.40
2023-07-23T23:23:59.041Z,24.50
2023-07-23T23:26:28.887Z,24.90
2023-07-23T23:28:58.778Z,24.70
2023-07-23T23:31:28.370Z,24.70
2023-07-23T23:33:58.078Z,24.80
2023-07-23T23:36:28.086Z,24.90
2023-07-23T23:38:58.222Z,24.80
2023-07-23T23:41:27.834Z,24.90
2023-07-23T23:43:57.375Z,24.90
2023-07-23T23:46:28.099Z,25.10
2023-07-23T23:48:58.537Z,25.00
2023-07-23T23:51:29.741Z,24.90
2023-07-23T23:53:59.303Z,25.00
2023-07-23T23:56:29.461Z,24.80
2023-07-23T23:58:59.423Z,24.20
